Time,TemperatureF,DewpointF,PressureIn,WindDirection,WindDirectionDegrees,WindSpeedMPH,WindSpeedGustMPH,Humidity,HourlyPrecipIn,Conditions,Clouds,dailyrainin,SolarRadiationWatts/m^2,SoftwareType,DateUTC
2013-01-31 04:02:00,47.0,46.0,-100.00,NNW,333,4.0,7.0,98,0.00,,,0.18,0.000000,,2013-01-31 14:02:00,
2013-01-31 04:11:00,47.0,46.0,-100.00,NNW,333,4.0,7.0,98,0.00,,,0.18,0.000000,,2013-01-31 14:11:00,
2013-01-31 04:21:00,47.0,46.0,-100.00,NNW,333,4.0,7.0,98,0.00,,,0.18,0.000000,,2013-01-31 14:21:00,
2013-01-31 04:31:00,47.0,46.0,-100.00,NNW,333,4.0,7.0,98,0.00,,,0.18,0.000000,,2013-01-31 14:31:00,
2013-01-31 04:52:00,46.0,45.0,-100.00,North,10,3.0,7.0,98,0.00,,,0.16,0.000000,,2013-01-31 14:52:00,
2013-01-31 05:03:00,46.0,45.0,-100.00,North,10,3.0,7.0,98,0.00,,,0.16,0.000000,,2013-01-31 15:03:00,
2013-01-31 05:12:00,46.0,45.0,-100.00,North,10,3.0,7.0,98,0.00,,,0.16,0.000000,,2013-01-31 15:12:00,
2013-01-31 05:22:00,46.0,45.0,-100.00,North,10,3.0,7.0,98,0.00,,,0.16,0.000000,,2013-01-31 15:22:00,
2013-01-31 05:32:00,46.0,45.0,-100.00,North,10,3.0,7.0,98,0.00,,,0.16,0.000000,,2013-01-31 15:32:00,
2013-01-31 06:03:00,45.0,44.0,-100.00,NW,315,4.0,6.0,98,0.00,,,0.14,0.000000,,2013-01-31 16:03:00,
2013-01-31 06:12:00,45.0,44.0,-100.00,NW,315,4.0,6.0,98,0.00,,,0.14,0.000000,,2013-01-31 16:12:00,
2013-01-31 06:21:00,45.0,44.0,-100.00,NW,315,4.0,6.0,98,0.00,,,0.14,0.000000,,2013-01-31 16:21:00,
2013-01-31 06:32:00,45.0,44.0,-100.00,NW,315,4.0,6.0,98,0.00,,,0.14,0.000000,,2013-01-31 16:32:00,
2013-01-31 06:52:00,45.0,44.0,-100.00,NW,309,4.0,6.0,98,0.00,,,0.14,0.000000,,2013-01-31 16:52:00,
2013-01-31 07:02:00,45.0,44.0,-100.00,NW,309,4.0,6.0,98,0.00,,,0.14,0.000000,,2013-01-31 17:02:00,
2013-01-31 07:12:00,45.0,44.0,-100.00,NW,309,4.0,6.0,98,0.00,,,0.14,0.000000,,2013-01-31 17:12:00,
2013-01-31 07:22:00,45.0,44.0,-100.00,NW,309,4.0,6.0,98,0.00,,,0.14,0.000000,,2013-01-31 17:22:00,
2013-01-31 07:31:00,45.0,44.0,-100.00,NW,309,4.0,6.0,98,0.00,,,0.14,0.000000,,2013-01-31 17:31:00,
2013-01-31 07:53:00,49.0,48.0,-100.00,NW,318,4.0,7.0,98,0.00,,,-99.99,41.000000,,2013-01-31 17:53:00,
2013-01-31 08:02:00,49.0,48.0,-100.00,NW,318,4.0,7.0,98,0.00,,,-99.99,41.000000,,2013-01-31 18:02:00,
2013-01-31 08:12:00,49.0,48.0,-100.00,NW,318,4.0,7.0,98,0.00,,,-99.99,41.000000,,2013-01-31 18:12:00,
2013-01-31 08:21:00,49.0,48.0,-100.00,NW,318,4.0,7.0,98,0.00,,,-99.99,41.000000,,2013-01-31 18:21:00,
2013-01-31 08:31:00,49.0,48.0,-100.00,NW,318,4.0,7.0,98,0.00,,,-99.99,41.000000,,2013-01-31 18:31:00,
2013-01-31 08:52:00,61.0,54.0,-100.00,NNE,31,4.0,7.0,79,0.00,,,0.12,297.000000,,2013-01-31 18:52:00,
2013-01-31 09:02:00,61.0,54.0,-100.00,NNE,31,4.0,7.0,79,0.00,,,0.12,297.000000,,2013-01-31 19:02:00,
2013-01-31 09:11:00,61.0,54.0,-100.00,NNE,31,4.0,7.0,79,0.00,,,0.12,297.000000,,2013-01-31 19:11:00,
2013-01-31 09:21:00,61.0,54.0,-100.00,NNE,31,4.0,7.0,79,0.00,,,0.12,297.000000,,2013-01-31 19:21:00,
2013-01-31 09:32:00,61.0,54.0,-100.00,NNE,31,4.0,7.0,79,0.00,,,0.12,297.000000,,2013-01-31 19:32:00,
2013-01-31 09:52:00,64.0,56.0,-100.00,ESE,105,3.0,8.0,74,0.00,,,0.12,509.000000,,2013-01-31 19:52:00,
2013-01-31 10:02:00,64.0,56.0,-100.00,ESE,105,3.0,8.0,74,0.00,,,0.12,509.000000,,2013-01-31 20:02:00,
2013-01-31 10:11:00,64.0,56.0,-100.00,ESE,105,3.0,8.0,74,0.00,,,0.12,509.000000,,2013-01-31 20:11:00,
2013-01-31 10:21:00,64.0,56.0,-100.00,ESE,105,3.0,8.0,74,0.00,,,0.12,509.000000,,2013-01-31 20:21:00,
2013-01-31 10:31:00,64.0,56.0,-100.00,ESE,105,3.0,8.0,74,0.00,,,0.12,509.000000,,2013-01-31 20:31:00,
2013-01-31 11:02:00,65.0,57.0,-100.00,East,88,3.0,8.0,75,0.00,,,0.12,543.000000,,2013-01-31 21:02:00,
2013-01-31 11:12:00,65.0,57.0,-100.00,East,88,3.0,8.0,75,0.00,,,0.12,543.000000,,2013-01-31 21:12:00,
2013-01-31 11:21:00,65.0,57.0,-100.00,East,88,3.0,8.0,75,0.00,,,0.12,543.000000,,2013-01-31 21:21:00,
2013-01-31 11:31:00,65.0,57.0,-100.00,East,88,3.0,8.0,75,0.00,,,0.12,543.000000,,2013-01-31 21:31:00,
2013-01-31 11:52:00,62.0,56.0,-100.00,ESE,102,3.0,11.0,81,0.00,,,0.12,443.000000,,2013-01-31 21:52:00,
2013-01-31 12:02:00,62.0,56.0,-100.00,ESE,102,3.0,11.0,81,0.00,,,0.12,443.000000,,2013-01-31 22:02:00,
2013-01-31 12:11:00,62.0,56.0,-100.00,ESE,102,3.0,11.0,81,0.00,,,0.12,443.000000,,2013-01-31 22:11:00,
2013-01-31 12:22:00,62.0,56.0,-100.00,ESE,102,3.0,11.0,81,0.00,,,0.12,443.000000,,2013-01-31 22:22:00,
2013-01-31 12:32:00,62.0,56.0,-100.00,ESE,102,3.0,11.0,81,0.00,,,0.12,443.000000,,2013-01-31 22:32:00,
2013-01-31 13:02:00,62.0,55.0,-100.00,SE,126,3.0,8.0,79,0.00,,,0.12,321.000000,,2013-01-31 23:02:00,
2013-01-31 13:12:00,62.0,55.0,-100.00,SE,126,3.0,8.0,79,0.00,,,0.12,321.000000,,2013-01-31 23:12:00,
2013-01-31 13:21:00,62.0,55.0,-100.00,SE,126,3.0,8.0,79,0.00,,,0.12,321.000000,,2013-01-31 23:21:00,
2013-01-31 13:31:00,62.0,55.0,-100.00,SE,126,3.0,8.0,79,0.00,,,0.12,321.000000,,2013-01-31 23:31:00,
2013-01-31 13:52:00,58.0,55.0,-100.00,SSE,159,2.0,7.0,90,0.00,,,0.12,100.000000,,2013-01-31 23:52:00,
2013-01-31 14:01:00,58.0,55.0,-100.00,SSE,159,2.0,7.0,90,0.00,,,0.12,100.000000,,2013-02-01 00:01:00,
2013-01-31 14:11:00,58.0,55.0,-100.00,SSE,159,2.0,7.0,90,0.00,,,0.12,100.000000,,2013-02-01 00:11:00,
2013-01-31 14:21:00,58.0,55.0,-100.00,SSE,159,2.0,7.0,90,0.00,,,0.12,100.000000,,2013-02-01 00:21:00,
2013-01-31 14:31:00,58.0,55.0,-100.00,SSE,159,2.0,7.0,90,0.00,,,0.12,100.000000,,2013-02-01 00:31:00,
2013-01-31 14:52:00,61.0,54.0,-100.00,ENE,75,5.0,10.0,78,0.00,,,0.12,303.000000,,2013-02-01 00:52:00,
2013-01-31 15:01:00,61.0,54.0,-100.00,ENE,75,5.0,10.0,78,0.00,,,0.12,303.000000,,2013-02-01 01:01:00,
2013-01-31 15:11:00,61.0,54.0,-100.00,ENE,75,5.0,10.0,78,0.00,,,0.12,303.000000,,2013-02-01 01:11:00,
2013-01-31 15:21:00,61.0,54.0,-100.00,ENE,75,5.0,10.0,78,0.00,,,0.12,303.000000,,2013-02-01 01:21:00,
2013-01-31 15:31:00,61.0,54.0,-100.00,ENE,75,5.0,10.0,78,0.00,,,0.12,303.000000,,2013-02-01 01:31:00,
2013-01-31 15:52:00,62.0,54.0,-100.00,NE,40,6.0,10.0,75,0.00,,,0.12,270.000000,,2013-02-01 01:52:00,
2013-01-31 16:01:00,62.0,54.0,-100.00,NE,40,6.0,10.0,75,0.00,,,0.12,270.000000,,2013-02-01 02:01:00,
2013-01-31 16:11:00,62.0,54.0,-100.00,NE,40,6.0,10.0,75,0.00,,,0.12,270.000000,,2013-02-01 02:11:00,
2013-01-31 16:21:00,62.0,54.0,-100.00,NE,40,6.0,10.0,75,0.00,,,0.12,270.000000,,2013-02-01 02:21:00,
2013-01-31 16:31:00,62.0,54.0,-100.00,NE,40,6.0,10.0,75,0.00,,,0.12,270.000000,,2013-02-01 02:31:00,
2013-01-31 16:52:00,59.0,52.0,-100.00,NNE,31,7.0,12.0,79,0.00,,,0.11,298.000000,,2013-02-01 02:52:00,
2013-01-31 17:01:00,59.0,52.0,-100.00,NNE,31,7.0,12.0,79,0.00,,,0.11,298.000000,,2013-02-01 03:01:00,
2013-01-31 17:11:00,59.0,52.0,-100.00,NNE,31,7.0,12.0,79,0.00,,,0.11,298.000000,,2013-02-01 03:11:00,
2013-01-31 17:21:00,59.0,52.0,-100.00,NNE,31,7.0,12.0,79,0.00,,,0.11,298.000000,,2013-02-01 03:21:00,
2013-01-31 17:32:00,59.0,52.0,-100.00,NNE,31,7.0,12.0,79,0.00,,,0.11,298.000000,,2013-02-01 03:32:00,
2013-01-31 17:52:00,55.0,49.0,-100.00,NNE,12,10.0,16.0,81,0.00,,,0.02,172.000000,,2013-02-01 03:52:00,
2013-01-31 18:02:00,55.0,49.0,-100.00,NNE,12,10.0,16.0,81,0.00,,,0.02,172.000000,,2013-02-01 04:02:00,
2013-01-31 18:11:00,55.0,49.0,-100.00,NNE,12,10.0,16.0,81,0.00,,,0.02,172.000000,,2013-02-01 04:11:00,
2013-01-31 18:21:00,55.0,49.0,-100.00,NNE,12,10.0,16.0,81,0.00,,,0.02,172.000000,,2013-02-01 04:21:00,
2013-01-31 18:31:00,55.0,49.0,-100.00,NNE,12,10.0,16.0,81,0.00,,,0.02,172.000000,,2013-02-01 04:31:00,
2013-01-31 18:52:00,54.0,49.0,-100.00,NNW,334,8.0,16.0,82,0.00,,,0.01,11.000000,,2013-02-01 04:52:00,
2013-01-31 19:03:00,54.0,49.0,-100.00,NNW,334,8.0,16.0,82,0.00,,,0.01,11.000000,,2013-02-01 05:03:00,
2013-01-31 19:11:00,54.0,49.0,-100.00,NNW,334,8.0,16.0,82,0.00,,,0.01,11.000000,,2013-02-01 05:11:00,
2013-01-31 19:22:00,54.0,49.0,-100.00,NNW,334,8.0,16.0,82,0.00,,,0.01,11.000000,,2013-02-01 05:22:00,
2013-01-31 19:31:00,54.0,49.0,-100.00,NNW,334,8.0,16.0,82,0.00,,,0.01,11.000000,,2013-02-01 05:31:00,
2013-01-31 20:02:00,52.0,46.0,-100.00,NW,322,6.0,14.0,79,0.00,,,0.01,0.000000,,2013-02-01 06:02:00,
2013-01-31 20:11:00,52.0,46.0,-100.00,NW,322,6.0,14.0,79,0.00,,,0.01,0.000000,,2013-02-01 06:11:00,
2013-01-31 20:21:00,52.0,46.0,-100.00,NW,322,6.0,14.0,79,0.00,,,0.01,0.000000,,2013-02-01 06:21:00,
2013-01-31 20:31:00,52.0,46.0,-100.00,NW,322,6.0,14.0,79,0.00,,,0.01,0.000000,,2013-02-01 06:31:00,
2013-01-31 21:01:00,51.0,45.0,-100.00,NW,320,5.0,9.0,79,0.00,,,0.01,0.000000,,2013-02-01 07:01:00,
2013-01-31 21:12:00,51.0,45.0,-100.00,NW,320,5.0,9.0,79,0.00,,,0.01,0.000000,,2013-02-01 07:12:00,
2013-01-31 21:21:00,51.0,45.0,-100.00,NW,320,5.0,9.0,79,0.00,,,0.01,0.000000,,2013-02-01 07:21:00,
2013-01-31 21:31:00,51.0,45.0,-100.00,NW,320,5.0,9.0,79,0.00,,,0.01,0.000000,,2013-02-01 07:31:00,
2013-01-31 21:52:00,51.0,43.0,-100.00,NW,319,7.0,11.0,74,0.00,,,0.01,0.000000,,2013-02-01 07:52:00,
2013-01-31 22:01:00,51.0,43.0,-100.00,NW,319,7.0,11.0,74,0.00,,,0.01,0.000000,,2013-02-01 08:01:00,
2013-01-31 22:11:00,51.0,43.0,-100.00,NW,319,7.0,11.0,74,0.00,,,0.01,0.000000,,2013-02-01 08:11:00,
2013-01-31 22:21:00,51.0,43.0,-100.00,NW,319,7.0,11.0,74,0.00,,,0.01,0.000000,,2013-02-01 08:21:00,
2013-01-31 22:31:00,51.0,43.0,-100.00,NW,319,7.0,11.0,74,0.00,,,0.01,0.000000,,2013-02-01 08:31:00,
2013-01-31 22:52:00,50.0,44.0,-100.00,NW,310,7.0,10.0,79,0.00,,,0.00,0.000000,,2013-02-01 08:52:00,
2013-01-31 23:01:00,50.0,44.0,-100.00,NW,310,7.0,10.0,79,0.00,,,0.00,0.000000,,2013-02-01 09:01:00,
2013-01-31 23:11:00,50.0,44.0,-100.00,NW,310,7.0,10.0,79,0.00,,,0.00,0.000000,,2013-02-01 09:11:00,
2013-01-31 23:21:00,50.0,44.0,-100.00,NW,310,7.0,10.0,79,0.00,,,0.00,0.000000,,2013-02-01 09:21:00,
2013-01-31 23:31:00,50.0,44.0,-100.00,NW,310,7.0,10.0,79,0.00,,,0.00,0.000000,,2013-02-01 09:31:00,
2013-01-31 23:52:00,50.0,43.0,-100.00,NW,317,7.0,11.0,76,0.00,,,0.00,0.000000,,2013-02-01 09:52:00,